sensor_id;sensor_type;location;lat;lon;timestamp;temperature;humidity
29539;DHT22;16482;51.046;4.498;2023-06-14T00:01:48;28.00;33.10
29539;DHT22;16482;51.046;4.498;2023-06-14T00:04:14;28.00;33.00
29539;DHT22;16482;51.046;4.498;2023-06-14T00:06:46;27.90;33.00
29539;DHT22;16482;51.046;4.498;2023-06-14T00:09:13;28.00;33.10
29539;DHT22;16482;51.046;4.498;2023-06-14T00:11:48;27.90;33.10
29539;DHT22;16482;51.046;4.498;2023-06-14T00:14:14;27.90;33.00
29539;DHT22;16482;51.046;4.498;2023-06-14T00:16:43;27.90;33.10
29539;DHT22;16482;51.046;4.498;2023-06-14T00:19:16;27.90;33.10
29539;DHT22;16482;51.046;4.498;2023-06-14T00:21:42;27.90;33.00
29539;DHT22;16482;51.046;4.498;2023-06-14T00:24:16;27.90;33.10
29539;DHT22;16482;51.046;4.498;2023-06-14T00:26:41;28.00;33.00
29539;DHT22;16482;51.046;4.498;2023-06-14T00:29:15;27.90;32.90
29539;DHT22;16482;51.046;4.498;2023-06-14T00:31:48;27.90;32.90
29539;DHT22;16482;51.046;4.498;2023-06-14T00:34:14;27.90;32.90
29539;DHT22;16482;51.046;4.498;2023-06-14T00:36:43;27.90;32.90
29539;DHT22;16482;51.046;4.498;2023-06-14T00:39:16;27.90;32.90
29539;DHT22;16482;51.046;4.498;2023-06-14T00:41:44;27.90;32.80
29539;DHT22;16482;51.046;4.498;2023-06-14T00:44:14;27.90;32.80
29539;DHT22;16482;51.046;4.498;2023-06-14T00:46:45;27.90;32.60
29539;DHT22;16482;51.046;4.498;2023-06-14T00:49:15;27.90;32.70
29539;DHT22;16482;51.046;4.498;2023-06-14T00:51:45;27.80;32.60
29539;DHT22;16482;51.046;4.498;2023-06-14T00:54:14;27.90;32.80
29539;DHT22;16482;51.046;4.498;2023-06-14T00:56:44;27.80;32.70
29539;DHT22;16482;51.046;4.498;2023-06-14T00:59:19;27.90;32.70
29539;DHT22;16482;51.046;4.498;2023-06-14T01:01:45;27.80;32.60
29539;DHT22;16482;51.046;4.498;2023-06-14T01:04:15;27.80;32.70
29539;DHT22;16482;51.046;4.498;2023-06-14T01:06:50;27.80;32.60
29539;DHT22;16482;51.046;4.498;2023-06-14T01:09:58;27.80;32.50
29539;DHT22;16482;51.046;4.498;2023-06-14T01:12:46;27.80;32.50
29539;DHT22;16482;51.046;4.498;2023-06-14T01:15:15;27.80;32.50
29539;DHT22;16482;51.046;4.498;2023-06-14T01:17:42;27.80;32.60
29539;DHT22;16482;51.046;4.498;2023-06-14T01:20:12;27.80;32.60
29539;DHT22;16482;51.046;4.498;2023-06-14T01:22:52;27.80;32.50
29539;DHT22;16482;51.046;4.498;2023-06-14T01:25:21;27.80;32.50
29539;DHT22;16482;51.046;4.498;2023-06-14T01:28:06;27.80;32.50
29539;DHT22;16482;51.046;4.498;2023-06-14T01:30:37;27.80;33.10
29539;DHT22;16482;51.046;4.498;2023-06-14T01:33:04;27.70;32.50
29539;DHT22;16482;51.046;4.498;2023-06-14T01:35:31;27.80;32.60
29539;DHT22;16482;51.046;4.498;2023-06-14T01:37:57;27.70;32.50
29539;DHT22;16482;51.046;4.498;2023-06-14T01:40:25;27.70;32.50
29539;DHT22;16482;51.046;4.498;2023-06-14T01:42:51;27.80;32.50
29539;DHT22;16482;51.046;4.498;2023-06-14T01:45:18;27.70;32.50
29539;DHT22;16482;51.046;4.498;2023-06-14T01:47:46;27.80;32.50
29539;DHT22;16482;51.046;4.498;2023-06-14T01:50:13;27.80;32.50
29539;DHT22;16482;51.046;4.498;2023-06-14T01:52:39;27.80;32.50
29539;DHT22;16482;51.046;4.498;2023-06-14T01:55:07;27.80;32.50
29539;DHT22;16482;51.046;4.498;2023-06-14T01:57:34;27.80;32.50
29539;DHT22;16482;51.046;4.498;2023-06-14T02:00:06;27.80;32.50
29539;DHT22;16482;51.046;4.498;2023-06-14T02:02:36;27.70;32.50
29539;DHT22;16482;51.046;4.498;2023-06-14T02:05:04;27.70;32.50
29539;DHT22;16482;51.046;4.498;2023-06-14T02:07:34;27.70;32.50
29539;DHT22;16482;51.046;4.498;2023-06-14T02:10:07;27.70;32.50
29539;DHT22;16482;51.046;4.498;2023-06-14T02:12:36;27.70;32.50
29539;DHT22;16482;51.046;4.498;2023-06-14T02:15:05;27.70;32.50
29539;DHT22;16482;51.046;4.498;2023-06-14T02:17:37;27.70;32.50
29539;DHT22;16482;51.046;4.498;2023-06-14T02:20:06;27.70;32.50
29539;DHT22;16482;51.046;4.498;2023-06-14T02:22:35;27.70;32.50
29539;DHT22;16482;51.046;4.498;2023-06-14T02:25:10;27.70;32.50
29539;DHT22;16482;51.046;4.498;2023-06-14T02:27:36;27.70;32.50
29539;DHT22;16482;51.046;4.498;2023-06-14T02:30:11;27.60;32.50
29539;DHT22;16482;51.046;4.498;2023-06-14T02:32:37;27.70;32.50
29539;DHT22;16482;51.046;4.498;2023-06-14T02:35:06;27.60;32.50
29539;DHT22;16482;51.046;4.498;2023-06-14T02:37:35;27.60;32.60
29539;DHT22;16482;51.046;4.498;2023-06-14T02:40:03;27.60;32.60
29539;DHT22;16482;51.046;4.498;2023-06-14T02:42:36;27.50;32.60
29539;DHT22;16482;51.046;4.498;2023-06-14T02:45:11;27.50;32.60
29539;DHT22;16482;51.046;4.498;2023-06-14T02:47:36;27.50;32.60
29539;DHT22;16482;51.046;4.498;2023-06-14T02:50:05;27.50;32.60
29539;DHT22;16482;51.046;4.498;2023-06-14T02:52:34;27.50;32.60
29539;DHT22;16482;51.046;4.498;2023-06-14T02:55:03;27.50;32.50
29539;DHT22;16482;51.046;4.498;2023-06-14T02:57:36;27.50;32.50
29539;DHT22;16482;51.046;4.498;2023-06-14T03:00:05;27.50;32.50
29539;DHT22;16482;51.046;4.498;2023-06-14T03:02:34;27.50;32.50
29539;DHT22;16482;51.046;4.498;2023-06-14T03:05:09;27.50;32.50
29539;DHT22;16482;51.046;4.498;2023-06-14T03:07:35;27.50;32.50
29539;DHT22;16482;51.046;4.498;2023-06-14T03:10:07;27.50;32.40
29539;DHT22;16482;51.046;4.498;2023-06-14T03:12:35;27.50;32.50
29539;DHT22;16482;51.046;4.498;2023-06-14T03:15:09;27.50;32.40
29539;DHT22;16482;51.046;4.498;2023-06-14T03:17:36;27.50;32.50
29539;DHT22;16482;51.046;4.498;2023-06-14T03:20:06;27.50;32.40
29539;DHT22;16482;51.046;4.498;2023-06-14T03:22:36;27.40;32.30
29539;DHT22;16482;51.046;4.498;2023-06-14T03:25:05;27.50;32.30
29539;DHT22;16482;51.046;4.498;2023-06-14T03:27:34;27.40;32.30
29539;DHT22;16482;51.046;4.498;2023-06-14T03:30:09;27.50;32.30
29539;DHT22;16482;51.046;4.498;2023-06-14T03:32:35;27.50;32.30
29539;DHT22;16482;51.046;4.498;2023-06-14T03:35:04;27.40;32.20
29539;DHT22;16482;51.046;4.498;2023-06-14T03:37:35;27.50;32.30
29539;DHT22;16482;51.046;4.498;2023-06-14T03:40:09;27.40;32.20
29539;DHT22;16482;51.046;4.498;2023-06-14T03:42:35;27.40;32.80
29539;DHT22;16482;51.046;4.498;2023-06-14T03:45:10;27.50;32.20
29539;DHT22;16482;51.046;4.498;2023-06-14T03:47:36;27.40;32.20
29539;DHT22;16482;51.046;4.498;2023-06-14T03:50:05;27.40;32.20
29539;DHT22;16482;51.046;4.498;2023-06-14T03:52:36;27.40;32.20
29539;DHT22;16482;51.046;4.498;2023-06-14T03:55:05;27.40;32.20
29539;DHT22;16482;51.046;4.498;2023-06-14T03:57:38;27.50;32.20
29539;DHT22;16482;51.046;4.498;2023-06-14T04:00:04;27.40;32.20
29539;DHT22;16482;51.046;4.498;2023-06-14T04:02:34;27.40;32.10
29539;DHT22;16482;51.046;4.498;2023-06-14T04:05:04;27.40;32.10
29539;DHT22;16482;51.046;4.498;2023-06-14T04:07:34;27.40;32.10
29539;DHT22;16482;51.046;4.498;2023-06-14T04:10:08;27.40;32.10
29539;DHT22;16482;51.046;4.498;2023-06-14T04:12:36;27.40;32.00
29539;DHT22;16482;51.046;4.498;2023-06-14T04:15:11;27.40;32.00
29539;DHT22;16482;51.046;4.498;2023-06-14T04:17:37;27.30;32.00
29539;DHT22;16482;51.046;4.498;2023-06-14T04:20:05;27.40;32.00
29539;DHT22;16482;51.046;4.498;2023-06-14T04:22:36;27.30;32.00
29539;DHT22;16482;51.046;4.498;2023-06-14T04:25:04;27.30;31.90
29539;DHT22;16482;51.046;4.498;2023-06-14T04:27:34;27.30;31.90
29539;DHT22;16482;51.046;4.498;2023-06-14T04:30:10;27.30;32.00
29539;DHT22;16482;51.046;4.498;2023-06-14T04:32:36;27.30;31.90
29539;DHT22;16482;51.046;4.498;2023-06-14T04:35:07;27.30;31.90
29539;DHT22;16482;51.046;4.498;2023-06-14T04:37:40;27.30;31.90
29539;DHT22;16482;51.046;4.498;2023-06-14T04:40:06;27.30;31.90
29539;DHT22;16482;51.046;4.498;2023-06-14T04:42:41;27.30;31.80
29539;DHT22;16482;51.046;4.498;2023-06-14T04:45:11;27.30;31.90
29539;DHT22;16482;51.046;4.498;2023-06-14T04:47:38;27.30;31.80
29539;DHT22;16482;51.046;4.498;2023-06-14T04:50:06;27.30;31.90
29539;DHT22;16482;51.046;4.498;2023-06-14T04:52:35;27.30;31.90
29539;DHT22;16482;51.046;4.498;2023-06-14T04:55:03;27.30;31.90
29539;DHT22;16482;51.046;4.498;2023-06-14T04:57:36;27.30;31.90
29539;DHT22;16482;51.046;4.498;2023-06-14T05:00:04;27.30;31.90
29539;DHT22;16482;51.046;4.498;2023-06-14T05:02:38;27.30;31.90
29539;DHT22;16482;51.046;4.498;2023-06-14T05:05:06;27.30;31.90
29539;DHT22;16482;51.046;4.498;2023-06-14T05:07:34;27.30;31.90
29539;DHT22;16482;51.046;4.498;2023-06-14T05:10:08;27.30;31.90
29539;DHT22;16482;51.046;4.498;2023-06-14T05:12:36;27.30;32.10
29539;DHT22;16482;51.046;4.498;2023-06-14T05:15:11;27.20;31.80
29539;DHT22;16482;51.046;4.498;2023-06-14T05:17:36;27.20;31.80
29539;DHT22;16482;51.046;4.498;2023-06-14T05:20:06;27.20;31.80
29539;DHT22;16482;51.046;4.498;2023-06-14T05:22:35;27.10;31.80
29539;DHT22;16482;51.046;4.498;2023-06-14T05:25:08;27.10;32.00
29539;DHT22;16482;51.046;4.498;2023-06-14T05:27:37;27.00;32.10
29539;DHT22;16482;51.046;4.498;2023-06-14T05:30:06;26.90;32.10
29539;DHT22;16482;51.046;4.498;2023-06-14T05:32:35;26.80;32.30
29539;DHT22;16482;51.046;4.498;2023-06-14T05:35:10;26.80;32.50
29539;DHT22;16482;51.046;4.498;2023-06-14T05:37:36;26.70;32.50
29539;DHT22;16482;51.046;4.498;2023-06-14T05:40:09;26.70;32.50
29539;DHT22;16482;51.046;4.498;2023-06-14T05:42:35;26.60;32.80
29539;DHT22;16482;51.046;4.498;2023-06-14T05:45:04;26.60;32.80
29539;DHT22;16482;51.046;4.498;2023-06-14T05:47:35;26.60;33.00
29539;DHT22;16482;51.046;4.498;2023-06-14T05:50:06;26.50;33.10
29539;DHT22;16482;51.046;4.498;2023-06-14T05:52:34;26.60;33.10
29539;DHT22;16482;51.046;4.498;2023-06-14T05:55:05;26.60;33.10
29539;DHT22;16482;51.046;4.498;2023-06-14T05:57:39;26.50;33.30
29539;DHT22;16482;51.046;4.498;2023-06-14T06:00:05;26.50;33.50
29539;DHT22;16482;51.046;4.498;2023-06-14T06:02:41;26.50;33.50
29539;DHT22;16482;51.046;4.498;2023-06-14T06:05:12;26.50;33.50
29539;DHT22;16482;51.046;4.498;2023-06-14T06:07:38;26.40;33.60
29539;DHT22;16482;51.046;4.498;2023-06-14T06:10:05;26.50;33.60
29539;DHT22;16482;51.046;4.498;2023-06-14T06:12:33;26.50;33.50
29539;DHT22;16482;51.046;4.498;2023-06-14T06:15:07;26.50;33.60
29539;DHT22;16482;51.046;4.498;2023-06-14T06:17:36;26.50;33.70
29539;DHT22;16482;51.046;4.498;2023-06-14T06:20:10;26.50;33.80
29539;DHT22;16482;51.046;4.498;2023-06-14T06:22:37;26.40;34.00
29539;DHT22;16482;51.046;4.498;2023-06-14T06:25:06;26.40;34.00
29539;DHT22;16482;51.046;4.498;2023-06-14T06:27:41;26.50;34.00
29539;DHT22;16482;51.046;4.498;2023-06-14T06:30:06;26.50;34.20
29539;DHT22;16482;51.046;4.498;2023-06-14T06:32:41;26.50;34.60
29539;DHT22;16482;51.046;4.498;2023-06-14T06:35:07;26.50;34.60
29539;DHT22;16482;51.046;4.498;2023-06-14T06:37:36;26.50;34.80
29539;DHT22;16482;51.046;4.498;2023-06-14T06:40:11;26.60;34.70
29539;DHT22;16482;51.046;4.498;2023-06-14T06:42:37;26.60;34.80
29539;DHT22;16482;51.046;4.498;2023-06-14T06:45:05;26.60;34.80
29539;DHT22;16482;51.046;4.498;2023-06-14T06:47:39;26.60;34.90
29539;DHT22;16482;51.046;4.498;2023-06-14T06:50:05;26.60;34.90
29539;DHT22;16482;51.046;4.498;2023-06-14T06:52:36;26.70;35.00
29539;DHT22;16482;51.046;4.498;2023-06-14T06:55:11;26.70;34.90
29539;DHT22;16482;51.046;4.498;2023-06-14T06:57:36;26.80;34.90
29539;DHT22;16482;51.046;4.498;2023-06-14T07:00:05;26.80;37.40
29539;DHT22;16482;51.046;4.498;2023-06-14T07:02:37;26.90;41.30
29539;DHT22;16482;51.046;4.498;2023-06-14T07:05:05;27.00;38.30
29539;DHT22;16482;51.046;4.498;2023-06-14T07:07:40;27.00;36.90
29539;DHT22;16482;51.046;4.498;2023-06-14T07:10:06;27.00;36.10
29539;DHT22;16482;51.046;4.498;2023-06-14T07:12:42;26.90;35.70
29539;DHT22;16482;51.046;4.498;2023-06-14T07:15:08;26.90;35.30
29539;DHT22;16482;51.046;4.498;2023-06-14T07:17:36;27.00;35.10
29539;DHT22;16482;51.046;4.498;2023-06-14T07:20:11;26.90;35.00
29539;DHT22;16482;51.046;4.498;2023-06-14T07:22:40;27.00;35.10
29539;DHT22;16482;51.046;4.498;2023-06-14T07:25:09;27.00;35.10
29539;DHT22;16482;51.046;4.498;2023-06-14T07:27:38;27.00;35.10
29539;DHT22;16482;51.046;4.498;2023-06-14T07:30:06;27.00;35.20
29539;DHT22;16482;51.046;4.498;2023-06-14T07:32:41;27.00;35.70
29539;DHT22;16482;51.046;4.498;2023-06-14T07:35:07;27.10;35.00
29539;DHT22;16482;51.046;4.498;2023-06-14T07:37:36;27.10;34.80
29539;DHT22;16482;51.046;4.498;2023-06-14T07:40:05;27.10;34.80
29539;DHT22;16482;51.046;4.498;2023-06-14T07:42:35;27.10;34.80
29539;DHT22;16482;51.046;4.498;2023-06-14T07:45:06;27.10;34.70
29539;DHT22;16482;51.046;4.498;2023-06-14T07:47:35;27.10;34.70
29539;DHT22;16482;51.046;4.498;2023-06-14T07:50:10;27.10;34.70
29539;DHT22;16482;51.046;4.498;2023-06-14T07:52:35;27.10;34.70
29539;DHT22;16482;51.046;4.498;2023-06-14T07:55:04;27.10;34.60
29539;DHT22;16482;51.046;4.498;2023-06-14T07:57:37;27.10;34.60
29539;DHT22;16482;51.046;4.498;2023-06-14T08:00:06;27.10;34.60
29539;DHT22;16482;51.046;4.498;2023-06-14T08:02:35;27.20;34.70
29539;DHT22;16482;51.046;4.498;2023-06-14T08:05:06;27.20;34.70
29539;DHT22;16482;51.046;4.498;2023-06-14T08:07:34;27.20;34.70
29539;DHT22;16482;51.046;4.498;2023-06-14T08:10:04;27.30;35.00
29539;DHT22;16482;51.046;4.498;2023-06-14T08:12:36;27.30;35.10
29539;DHT22;16482;51.046;4.498;2023-06-14T08:15:05;27.40;35.30
29539;DHT22;16482;51.046;4.498;2023-06-14T08:17:34;27.40;35.60
29539;DHT22;16482;51.046;4.498;2023-06-14T08:20:11;27.40;35.70
29539;DHT22;16482;51.046;4.498;2023-06-14T08:22:36;27.50;35.90
29539;DHT22;16482;51.046;4.498;2023-06-14T08:25:05;27.60;37.20
29539;DHT22;16482;51.046;4.498;2023-06-14T08:27:35;27.60;37.60
29539;DHT22;16482;51.046;4.498;2023-06-14T08:30:09;27.60;37.30
29539;DHT22;16482;51.046;4.498;2023-06-14T08:32:35;27.60;37.00
29539;DHT22;16482;51.046;4.498;2023-06-14T08:35:10;27.60;37.10
29539;DHT22;16482;51.046;4.498;2023-06-14T08:37:39;27.60;36.90
29539;DHT22;16482;51.046;4.498;2023-06-14T08:40:06;27.70;36.80
29539;DHT22;16482;51.046;4.498;2023-06-14T08:42:41;27.70;36.90
29539;DHT22;16482;51.046;4.498;2023-06-14T08:45:07;27.70;36.90
29539;DHT22;16482;51.046;4.498;2023-06-14T08:47:33;27.70;37.00
29539;DHT22;16482;51.046;4.498;2023-06-14T08:50:04;27.70;36.90
29539;DHT22;16482;51.046;4.498;2023-06-14T08:52:40;27.70;37.00
29539;DHT22;16482;51.046;4.498;2023-06-14T08:55:10;27.70;36.90
29539;DHT22;16482;51.046;4.498;2023-06-14T08:57:36;27.70;36.60
29539;DHT22;16482;51.046;4.498;2023-06-14T09:00:03;27.70;36.60
29539;DHT22;16482;51.046;4.498;2023-06-14T09:02:37;27.80;36.50
29539;DHT22;16482;51.046;4.498;2023-06-14T09:05:10;27.80;36.40
29539;DHT22;16482;51.046;4.498;2023-06-14T09:07:41;27.80;36.20
29539;DHT22;16482;51.046;4.498;2023-06-14T09:10:09;27.80;36.20
29539;DHT22;16482;51.046;4.498;2023-06-14T09:12:35;27.90;36.40
29539;DHT22;16482;51.046;4.498;2023-06-14T09:15:06;27.80;36.30
29539;DHT22;16482;51.046;4.498;2023-06-14T09:17:36;27.80;36.20
29539;DHT22;16482;51.046;4.498;2023-06-14T09:20:06;27.80;36.30
29539;DHT22;16482;51.046;4.498;2023-06-14T09:22:36;27.90;36.10
29539;DHT22;16482;51.046;4.498;2023-06-14T09:25:05;27.90;35.90
29539;DHT22;16482;51.046;4.498;2023-06-14T09:27:38;27.90;35.80
29539;DHT22;16482;51.046;4.498;2023-06-14T09:30:06;27.90;35.90
29539;DHT22;16482;51.046;4.498;2023-06-14T09:32:38;27.90;35.70
29539;DHT22;16482;51.046;4.498;2023-06-14T09:35:08;27.90;35.70
29539;DHT22;16482;51.046;4.498;2023-06-14T09:37:37;27.90;35.70
29539;DHT22;16482;51.046;4.498;2023-06-14T09:40:05;28.00;35.80
29539;DHT22;16482;51.046;4.498;2023-06-14T09:42:35;28.00;35.70
29539;DHT22;16482;51.046;4.498;2023-06-14T09:45:05;28.00;35.80
29539;DHT22;16482;51.046;4.498;2023-06-14T09:47:35;28.00;36.10
29539;DHT22;16482;51.046;4.498;2023-06-14T09:50:10;28.00;36.20
29539;DHT22;16482;51.046;4.498;2023-06-14T09:52:38;28.00;36.40
29539;DHT22;16482;51.046;4.498;2023-06-14T09:55:09;28.00;36.50
29539;DHT22;16482;51.046;4.498;2023-06-14T09:57:37;28.00;36.50
29539;DHT22;16482;51.046;4.498;2023-06-14T10:00:06;28.10;36.80
29539;DHT22;16482;51.046;4.498;2023-06-14T10:02:36;28.00;36.60
29539;DHT22;16482;51.046;4.498;2023-06-14T10:05:08;28.00;36.60
29539;DHT22;16482;51.046;4.498;2023-06-14T10:07:38;28.10;36.50
29539;DHT22;16482;51.046;4.498;2023-06-14T10:10:06;28.00;36.40
29539;DHT22;16482;51.046;4.498;2023-06-14T10:12:37;28.00;36.50
29539;DHT22;16482;51.046;4.498;2023-06-14T10:15:07;28.00;36.30
29539;DHT22;16482;51.046;4.498;2023-06-14T10:17:45;28.00;36.10
29539;DHT22;16482;51.046;4.498;2023-06-14T10:25:31;28.10;36.00
29539;DHT22;16482;51.046;4.498;2023-06-14T10:28:16;28.10;35.60
29539;DHT22;16482;51.046;4.498;2023-06-14T10:33:27;28.10;35.90
29539;DHT22;16482;51.046;4.498;2023-06-14T10:38:38;28.10;35.50
29539;DHT22;16482;51.046;4.498;2023-06-14T10:41:04;28.10;35.50
29539;DHT22;16482;51.046;4.498;2023-06-14T10:43:30;28.10;35.40
29539;DHT22;16482;51.046;4.498;2023-06-14T10:48:57;28.10;35.00
29539;DHT22;16482;51.046;4.498;2023-06-14T10:51:24;28.10;35.50
29539;DHT22;16482;51.046;4.498;2023-06-14T10:53:50;28.10;34.80
29539;DHT22;16482;51.046;4.498;2023-06-14T10:56:28;28.10;34.60
29539;DHT22;16482;51.046;4.498;2023-06-14T10:58:56;28.10;34.50
29539;DHT22;16482;51.046;4.498;2023-06-14T11:01:32;28.10;34.60
29539;DHT22;16482;51.046;4.498;2023-06-14T11:04:22;28.10;34.50
29539;DHT22;16482;51.046;4.498;2023-06-14T11:06:48;28.10;34.30
29539;DHT22;16482;51.046;4.498;2023-06-14T11:12:01;28.10;34.30
29539;DHT22;16482;51.046;4.498;2023-06-14T11:14:30;28.10;34.20
29539;DHT22;16482;51.046;4.498;2023-06-14T11:16:56;28.10;34.30
29539;DHT22;16482;51.046;4.498;2023-06-14T11:19:22;28.10;34.20
29539;DHT22;16482;51.046;4.498;2023-06-14T11:21:48;28.10;34.10
29539;DHT22;16482;51.046;4.498;2023-06-14T11:24:17;28.10;34.00
29539;DHT22;16482;51.046;4.498;2023-06-14T11:26:46;28.10;33.90
29539;DHT22;16482;51.046;4.498;2023-06-14T11:29:15;28.10;33.80
29539;DHT22;16482;51.046;4.498;2023-06-14T11:31:46;28.10;33.70
29539;DHT22;16482;51.046;4.498;2023-06-14T11:34:20;28.10;33.80
29539;DHT22;16482;51.046;4.498;2023-06-14T11:36:46;28.10;33.80
29539;DHT22;16482;51.046;4.498;2023-06-14T11:39:15;28.10;34.10
29539;DHT22;16482;51.046;4.498;2023-06-14T11:41:46;28.10;34.20
29539;DHT22;16482;51.046;4.498;2023-06-14T11:44:19;28.10;34.00
29539;DHT22;16482;51.046;4.498;2023-06-14T11:46:45;28.10;33.90
29539;DHT22;16482;51.046;4.498;2023-06-14T11:49:15;28.10;33.60
29539;DHT22;16482;51.046;4.498;2023-06-14T11:51:44;28.20;33.80
29539;DHT22;16482;51.046;4.498;2023-06-14T11:54:17;28.20;33.80
29539;DHT22;16482;51.046;4.498;2023-06-14T11:56:46;28.20;33.90
29539;DHT22;16482;51.046;4.498;2023-06-14T11:59:24;28.20;33.90
29539;DHT22;16482;51.046;4.498;2023-06-14T12:01:50;28.20;33.80
29539;DHT22;16482;51.046;4.498;2023-06-14T12:04:23;28.20;33.90
29539;DHT22;16482;51.046;4.498;2023-06-14T12:06:48;28.20;33.80
29539;DHT22;16482;51.046;4.498;2023-06-14T12:09:17;28.20;33.90
29539;DHT22;16482;51.046;4.498;2023-06-14T12:11:46;28.20;34.10
29539;DHT22;16482;51.046;4.498;2023-06-14T12:14:19;28.20;34.10
29539;DHT22;16482;51.046;4.498;2023-06-14T12:16:45;28.20;33.90
29539;DHT22;16482;51.046;4.498;2023-06-14T12:19:19;28.20;34.20
29539;DHT22;16482;51.046;4.498;2023-06-14T12:21:48;28.30;33.90
29539;DHT22;16482;51.046;4.498;2023-06-14T12:24:14;28.20;33.90
29539;DHT22;16482;51.046;4.498;2023-06-14T12:26:40;28.30;34.00
29539;DHT22;16482;51.046;4.498;2023-06-14T12:29:19;28.20;33.90
29539;DHT22;16482;51.046;4.498;2023-06-14T12:31:47;28.30;34.00
29539;DHT22;16482;51.046;4.498;2023-06-14T12:34:16;28.20;33.90
29539;DHT22;16482;51.046;4.498;2023-06-14T12:36:45;28.30;34.10
29539;DHT22;16482;51.046;4.498;2023-06-14T12:39:19;28.30;34.00
29539;DHT22;16482;51.046;4.498;2023-06-14T12:41:46;28.30;34.00
29539;DHT22;16482;51.046;4.498;2023-06-14T12:44:15;28.30;34.00
29539;DHT22;16482;51.046;4.498;2023-06-14T12:46:46;28.30;33.80
29539;DHT22;16482;51.046;4.498;2023-06-14T12:49:15;28.30;34.00
29539;DHT22;16482;51.046;4.498;2023-06-14T12:51:50;28.30;34.00
29539;DHT22;16482;51.046;4.498;2023-06-14T12:54:15;28.30;34.60
29539;DHT22;16482;51.046;4.498;2023-06-14T12:56:45;28.30;33.80
29539;DHT22;16482;51.046;4.498;2023-06-14T12:59:16;28.30;33.80
29539;DHT22;16482;51.046;4.498;2023-06-14T13:01:49;28.30;33.60
29539;DHT22;16482;51.046;4.498;2023-06-14T13:04:15;28.30;33.80
29539;DHT22;16482;51.046;4.498;2023-06-14T13:06:50;28.30;33.60
29539;DHT22;16482;51.046;4.498;2023-06-14T13:09:18;28.30;33.70
29539;DHT22;16482;51.046;4.498;2023-06-14T13:11:47;28.30;33.40
29539;DHT22;16482;51.046;4.498;2023-06-14T13:14:15;28.30;33.40
29539;DHT22;16482;51.046;4.498;2023-06-14T13:16:44;28.30;33.20
29539;DHT22;16482;51.046;4.498;2023-06-14T13:19:17;28.30;33.10
29539;DHT22;16482;51.046;4.498;2023-06-14T13:21:46;28.30;32.90
29539;DHT22;16482;51.046;4.498;2023-06-14T13:24:15;28.30;32.90
29539;DHT22;16482;51.046;4.498;2023-06-14T13:26:46;28.30;32.90
29539;DHT22;16482;51.046;4.498;2023-06-14T13:29:15;28.30;32.80
29539;DHT22;16482;51.046;4.498;2023-06-14T13:31:48;28.30;32.70
29539;DHT22;16482;51.046;4.498;2023-06-14T13:34:14;28.30;32.60
29539;DHT22;16482;51.046;4.498;2023-06-14T13:36:40;28.30;32.60
29539;DHT22;16482;51.046;4.498;2023-06-14T13:39:16;28.20;32.50
29539;DHT22;16482;51.046;4.498;2023-06-14T13:41:45;28.20;32.50
29539;DHT22;16482;51.046;4.498;2023-06-14T13:44:18;28.20;32.40
29539;DHT22;16482;51.046;4.498;2023-06-14T13:46:46;28.20;32.50
29539;DHT22;16482;51.046;4.498;2023-06-14T13:49:15;28.20;32.40
29539;DHT22;16482;51.046;4.498;2023-06-14T13:51:50;28.20;32.40
29539;DHT22;16482;51.046;4.498;2023-06-14T13:54:18;28.20;31.70
29539;DHT22;16482;51.046;4.498;2023-06-14T13:56:45;28.20;31.80
29539;DHT22;16482;51.046;4.498;2023-06-14T13:59:15;28.20;31.70
29539;DHT22;16482;51.046;4.498;2023-06-14T14:01:43;28.20;31.60
29539;DHT22;16482;51.046;4.498;2023-06-14T14:04:18;28.20;31.30
29539;DHT22;16482;51.046;4.498;2023-06-14T14:06:46;28.20;31.30
29539;DHT22;16482;51.046;4.498;2023-06-14T14:09:20;28.20;31.30
29539;DHT22;16482;51.046;4.498;2023-06-14T14:11:48;28.20;31.20
29539;DHT22;16482;51.046;4.498;2023-06-14T14:14:16;28.20;30.90
29539;DHT22;16482;51.046;4.498;2023-06-14T14:16:45;28.20;31.00
29539;DHT22;16482;51.046;4.498;2023-06-14T14:19:11;28.20;31.10
29539;DHT22;16482;51.046;4.498;2023-06-14T14:21:47;28.20;30.90
29539;DHT22;16482;51.046;4.498;2023-06-14T14:24:15;28.20;30.60
29539;DHT22;16482;51.046;4.498;2023-06-14T14:26:44;28.20;30.70
29539;DHT22;16482;51.046;4.498;2023-06-14T14:29:16;28.20;30.40
29539;DHT22;16482;51.046;4.498;2023-06-14T14:31:51;28.20;30.40
29539;DHT22;16482;51.046;4.498;2023-06-14T14:34:17;28.20;30.10
29539;DHT22;16482;51.046;4.498;2023-06-14T14:36:51;28.20;30.00
29539;DHT22;16482;51.046;4.498;2023-06-14T14:39:17;28.20;30.00
29539;DHT22;16482;51.046;4.498;2023-06-14T14:41:46;28.20;30.00
29539;DHT22;16482;51.046;4.498;2023-06-14T14:44:15;28.10;29.90
29539;DHT22;16482;51.046;4.498;2023-06-14T14:46:41;28.20;29.90
29539;DHT22;16482;51.046;4.498;2023-06-14T14:49:06;28.20;29.90
29539;DHT22;16482;51.046;4.498;2023-06-14T14:51:32;28.20;29.80
29539;DHT22;16482;51.046;4.498;2023-06-14T14:53:58;28.20;29.90
29539;DHT22;16482;51.046;4.498;2023-06-14T14:56:24;28.20;29.80
29539;DHT22;16482;51.046;4.498;2023-06-14T14:58:51;28.20;29.80
29539;DHT22;16482;51.046;4.498;2023-06-14T15:01:17;28.20;29.90
29539;DHT22;16482;51.046;4.498;2023-06-14T15:03:43;28.10;29.80
29539;DHT22;16482;51.046;4.498;2023-06-14T15:06:12;28.20;29.90
29539;DHT22;16482;51.046;4.498;2023-06-14T15:08:38;28.20;29.80
29539;DHT22;16482;51.046;4.498;2023-06-14T15:11:04;28.20;30.10
29539;DHT22;16482;51.046;4.498;2023-06-14T15:13:30;28.20;30.00
29539;DHT22;16482;51.046;4.498;2023-06-14T15:15:59;28.20;29.90
29539;DHT22;16482;51.046;4.498;2023-06-14T15:18:25;28.20;29.80
29539;DHT22;16482;51.046;4.498;2023-06-14T15:21:00;28.20;29.80
29539;DHT22;16482;51.046;4.498;2023-06-14T15:23:29;28.20;30.00
29539;DHT22;16482;51.046;4.498;2023-06-14T15:25:55;28.30;30.50
29539;DHT22;16482;51.046;4.498;2023-06-14T15:28:32;28.30;30.10
29539;DHT22;16482;51.046;4.498;2023-06-14T15:30:58;28.20;30.00
29539;DHT22;16482;51.046;4.498;2023-06-14T15:33:31;28.30;30.00
29539;DHT22;16482;51.046;4.498;2023-06-14T15:35:58;28.30;30.10
29539;DHT22;16482;51.046;4.498;2023-06-14T15:38:31;28.30;30.10
29539;DHT22;16482;51.046;4.498;2023-06-14T15:40:57;28.30;30.00
29539;DHT22;16482;51.046;4.498;2023-06-14T15:43:26;28.30;30.00
29539;DHT22;16482;51.046;4.498;2023-06-14T15:46:01;28.30;30.00
29539;DHT22;16482;51.046;4.498;2023-06-14T15:48:27;28.30;30.00
29539;DHT22;16482;51.046;4.498;2023-06-14T15:50:56;28.30;30.10
29539;DHT22;16482;51.046;4.498;2023-06-14T15:53:29;28.30;30.00
29539;DHT22;16482;51.046;4.498;2023-06-14T15:55:57;28.30;29.90
29539;DHT22;16482;51.046;4.498;2023-06-14T15:58:32;28.30;30.00
29539;DHT22;16482;51.046;4.498;2023-06-14T16:00:57;28.40;30.00
29539;DHT22;16482;51.046;4.498;2023-06-14T16:03:26;28.30;30.00